Uribelarrea, Argentina
Current Conditions -  °F | °C
As of 3:00 AM on Saturday 25 Oct 2014 (Local Time) from SAEZ Reporting Station
Clear Clear  
Wind Chill: 72°   Ceiling: Unl
Heat Index: 72°   Visibility: 6mi
Dew Point: 64°   Wind: 6mph
Humidity: 78%   Direction: 100°E
Pressure: 29.91"   Gusts: NA
Location:  35.13°S, 58.89°W
Report Text: SAEZ 250600Z 10005KT CAVOK 22/18 Q1013
Loading
Personal Weather Stations






























Interactive Weather Map
Tropical Storm Tracking
New forecast layout! Learn more

10-Day Weather Forecast

Advertisements
Track Severe Weather on mobile